La Gilda, Argentina
Current Conditions -  °F | °C
As of 9:00 PM on Tuesday 25 Nov 2014 (Local Time) from SAOC Reporting Station
Scattered Clouds Scattered Clouds  
Wind Chill: 68°   Ceiling: Unl
Heat Index: 68°   Visibility: 6mi
Dew Point: 48°   Wind: 12mph
Humidity: 49%   Direction: 50°NE
Pressure: 29.88"   Gusts: NA
Location:  33.25°S, 64.12°W
Report Text: SAOC 260000Z 05010KT 9999 SCT030 SCT10020/09 Q1012
Loading
Personal Weather Stations






























Interactive Weather Map New forecast layout! Learn more

10-Day Weather Forecast

Advertisements
Track Severe Weather on mobile